EA1IMW
43.14.36N 005.46.93W
IN73CF aprs.fi
zuletzt gehoert:
2022-01-21T11:04:41Z
zuerst gehoert:
2020-04-25T03:02:34Z

APRS Mieres [IN73CF], 0 Stunde(n), EA1IMW [13:33:56, 0s].
EA1JBL 43.12.28N 005.47.42WIN73CE 3.758km 198°SSW12:02:34ZMMDVM DVMega 435.3000/435.3000 CC1
EA1HWX 43.19.39N 005.50.84WIN73BH 11.209km 329°NNW12:02:58ZMMDVM DMO 435.5000/435.5000 CC1
EA1L 43.20.37N 005.51.13WIN73BI 12.980km 332°NNW12:33:07ZWind 041°/004kn, Böen bis 012kn, Temp 7.78c, Regen 0.0mm, letzte 24h 0.3mm, seit 0h 0.3mm, Baro 1030.9h, Hum: 72%(3EA1L-13)
EA1JAY 43.21.54N 005.51.34WIN73BI 15.031km 335°NNW12:01:14Z434.525MHz Nodo TETRA DMO(3EA1JAY-4)
33D00 43.21.63N 005.51.13WIN73BI 15.058km 336°NNW12:01:54Z33-D-00 Protección Civil REMER / Delegación del Gobierno en Asturias
ED1ZAD 43.07.90N 005.38.52WIN73ED 15.943km 137°SE12:18:32ZED1ZAD-3 APRS Digi/Igate(3ED1ZAD-3)
LEHU 43.22.63N 005.49.57WIN73CJ 16.114km 345°NNW12:33:03ZHelipuerto del HUCA: LEAS 211130Z 10012KT 050V150 9999 SCT024 SCT038 09/04 Q1034 NOSIG=
EA1YR 43.22.09N 005.51.86WIN73BI 16.270km 334°NNW12:03:14ZMMDVM DVS 434.3500/434.3500 CC1
EA1ABW 43.24.77N 005.47.77WIN73CJ 19.644km 355°N12:33:20ZMMDVM MMDVM HS Hat 439.8250/439.8250 CC1
EA1FLQ 43.22.00N 005.36.35WIN73EI 19.929km 44°NE12:02:21ZMMDVM DVMega 439.9750/439.9750 CC1
LEMR 43.25.83N 005.49.60WIN73CK 21.910km 349°N12:33:04ZAerodromo de la Morgal: LEAS 211130Z 10012KT 050V150 9999 SCT024 SCT038 09/04 Q1034 NOSIG=
LEGM 43.26.15N 005.49.84WIN73CK 22.569km 349°N12:33:03ZHelipuerto de La Morgal: LEAS 211130Z 10012KT 050V150 9999 SCT024 SCT038 09/04 Q1034 NOSIG=
ED1ZAE 43.27.99N 005.40.54WIN73DL 26.776km 18°NNE12:32:20Z400 M. PICO SAN MARTIN (GIJON) 13.3V,11.8C(3ED1ZAE-3)
EB1GEM 43.30.00N 005.36.07WIN73EM 32.497km 26°NNE12:27:14ZWX3in1Plus2.0 U=13.3V,T=??.?C/??.?F(3EB1GEM-3)
EA1DZR 43.31.47N 005.40.00WIN73DM 33.165km 15°NNE12:03:24ZMMDVM DVMega 431.1000/431.1000 CC1
EA1HJA 43.28.10N 005.30.45WIN73FL 33.658km 40°NE12:14:55ZEA1HJA@URE.ES
IN73FL WX3IN1+ 2.0 - V=13.2V,TX TEMP=22.8C(2EA1HJA-2)
EA1IEJ 43.31.81N 005.40.25WIN73DM 33.707km 15°NNE12:01:52ZMMDVM MMDVM HS Hat 438.8500/438.8500 CC6
EB1TK 43.32.22N 005.42.32WIN73DM 33.864km 10°N12:26:26ZWind 092°/016kn, Böen bis 022kn, Temp 9.44c, Regen 0.0mm, letzte 24h 0.5mm, seit 0h 0.5mm, Baro 1036.3h, Hum: 73%(3EB1TK-13)
LEEL 43.32.98N 005.41.71WIN73DN 35.374km 11°N12:33:04ZHelipuerto de El Musel: LEAS 211130Z 10012KT 050V150 9999 SCT024 SCT038 09/04 Q1034 NOSIG=
EA1AHA 43.32.74N 005.54.36WIN73BN 35.900km 343°NNW12:33:20ZWind 113°/012kn, Böen bis 015kn, Temp 11.11c, Regen 0.3mm, letzte 24h 0.3mm, seit 0h 0.3mm, Baro 1035.1h, Hum: 60%(3EA1AHA-13)
MMDVM MMDVM HS Hat 432.0000/432.0000 CC1(2EA1AHA)
EA1HWD 43.28.96N 005.26.30WIN73GL 38.616km 45°NE12:02:26Z144.575FM Local frecuency VHF. 434.2500/434.2500 CC1
EA1GHF 43.17.99N 006.22.79WIN63TH 49.399km 278°W12:18:54ZMMDVM MMDVM HS Hat 434.4000/434.4000 CC1
440 MMDVM Voice 434.40000MHz +0.0000MHz, APRS for DMRGateway(2EA1GHF-D)
LETN 43.20.05N 006.22.69WIN63TI 49.934km 283°WNW12:33:04ZAerodromo de La Curiscada (Tineo): LEAS 211130Z 10012KT 050V150 9999 SCT024 SCT038 09/04 Q1034 NOSIG=

aprs.pl 5.0.011w DL3EL © 2006-2021 [1450166]